Chemung, Illinois
Current Conditions -  °F | °C
As of 1:15 PM on Saturday 25 Oct 2014 (Local Time) from KBUU Reporting Station
Clear Clear  
Wind Chill: 67°   Ceiling: Unl
Heat Index: 67°   Visibility: 10mi
Dew Point: 34°   Wind: 15mph
Humidity: 29%   Direction: 280°W
Pressure: 29.92"   Gusts: 22mph
Location:  42.4267°N, 88.599°W
Report Text: KBUU 251815Z AUTO 28013G19KT 10SM CLR 20/01 A2992 RMK AO2 T01950011
Loading
Personal Weather Stations






























Interactive Weather Map
Tropical Storm Tracking
New forecast layout! Learn more

10-Day Weather Forecast

Advertisements
Track Severe Weather on mobile